Time,TemperatureF,DewpointF,PressureIn,WindDirection,WindDirectionDegrees,WindSpeedMPH,WindSpeedGustMPH,Humidity,HourlyPrecipIn,Conditions,Clouds,dailyrainin,SoftwareType,DateUTC
2011-03-28 00:03:00,43.3,24.4,29.72,SSE,157,0.0,0.7,47,0.00,,,0.00,open2300-1.11,2011-03-28 06:03:00,
2011-03-28 00:13:00,43.0,24.1,29.72,SSE,157,0.0,0.0,47,0.00,,,0.00,open2300-1.11,2011-03-28 06:13:00,
2011-03-28 00:23:00,42.6,24.3,29.72,SSE,157,5.1,5.1,48,0.00,,,0.00,open2300-1.11,2011-03-28 06:23:00,
2011-03-28 00:33:00,42.3,23.9,29.72,SSE,157,3.4,5.1,48,0.00,,,0.00,open2300-1.11,2011-03-28 06:33:00,
2011-03-28 00:43:00,41.7,23.4,29.71,ENE,67,0.7,3.4,48,0.00,,,0.00,open2300-1.11,2011-03-28 06:43:00,
2011-03-28 00:53:00,41.5,23.7,29.71,ESE,112,0.0,2.9,49,0.00,,,0.00,open2300-1.11,2011-03-28 06:53:00,
2011-03-28 01:03:00,41.5,23.7,29.71,SE,135,0.0,1.3,49,0.00,,,0.00,open2300-1.11,2011-03-28 07:03:00,
2011-03-28 01:13:00,41.2,23.4,29.73,SW,225,0.0,2.2,49,0.00,,,0.00,open2300-1.11,2011-03-28 07:13:00,
2011-03-28 01:23:00,40.8,23.6,29.73,SSW,202,0.0,4.2,50,0.00,,,0.00,open2300-1.11,2011-03-28 07:23:00,
2011-03-28 01:33:00,40.6,23.4,29.73,NE,45,0.0,3.8,50,0.00,,,0.00,open2300-1.11,2011-03-28 07:33:00,
2011-03-28 01:43:00,40.3,23.5,29.72,East,90,0.0,2.9,51,0.00,,,0.00,open2300-1.11,2011-03-28 07:43:00,
2011-03-28 01:53:00,40.1,23.8,29.73,East,90,0.0,5.1,51,0.00,,,0.00,open2300-1.11,2011-03-28 07:53:00,
2011-03-28 02:03:00,39.7,23.0,29.72,SSE,157,0.0,2.0,51,0.00,,,0.00,open2300-1.11,2011-03-28 08:03:00,
2011-03-28 02:13:00,39.0,22.8,29.72,SE,135,0.0,6.0,52,0.00,,,0.00,open2300-1.11,2011-03-28 08:13:00,
2011-03-28 02:23:00,38.8,23.1,29.73,ESE,112,0.0,0.0,53,0.00,,,0.00,open2300-1.11,2011-03-28 08:23:00,
2011-03-28 02:33:00,38.5,22.8,29.73,SE,135,0.0,0.0,53,0.00,,,0.00,open2300-1.11,2011-03-28 08:33:00,
2011-03-28 02:43:00,37.9,22.3,29.74,SSE,157,0.0,0.0,53,0.00,,,0.00,open2300-1.11,2011-03-28 08:43:00,
2011-03-28 02:53:00,37.6,22.4,29.74,SSE,157,0.0,0.0,54,0.00,,,0.00,open2300-1.11,2011-03-28 08:53:00,
2011-03-28 03:03:00,37.2,22.5,29.73,SSE,157,0.0,0.0,55,0.00,,,0.00,open2300-1.11,2011-03-28 09:03:00,
2011-03-28 03:13:00,37.2,22.9,29.73,SSE,157,0.0,0.0,56,0.00,,,0.00,open2300-1.11,2011-03-28 09:13:00,
2011-03-28 03:23:00,36.9,23.0,29.74,SSE,157,0.0,0.0,57,0.00,,,0.00,open2300-1.11,2011-03-28 09:23:00,
2011-03-28 03:33:00,36.7,23.7,29.74,NNW,337,5.6,5.6,59,0.00,,,0.00,open2300-1.11,2011-03-28 09:33:00,
2011-03-28 03:43:00,38.7,26.7,29.73,NNW,337,2.7,5.6,62,0.00,,,0.00,open2300-1.11,2011-03-28 09:43:00,
2011-03-28 03:53:00,40.3,27.9,29.74,WNW,292,1.1,5.1,61,0.00,,,0.00,open2300-1.11,2011-03-28 09:53:00,
2011-03-28 04:03:00,41.2,28.4,29.74,WNW,292,5.8,5.8,60,0.00,,,0.00,open2300-1.11,2011-03-28 10:03:00,
2011-03-28 04:13:00,41.7,28.9,29.73,NNW,337,0.7,5.8,60,0.00,,,0.00,open2300-1.11,2011-03-28 10:13:00,
2011-03-28 04:23:00,42.1,28.7,29.74,NW,315,0.0,2.0,59,0.00,,,0.00,open2300-1.11,2011-03-28 10:23:00,
2011-03-28 04:33:00,42.4,29.1,29.75,West,270,0.0,0.9,59,0.00,,,0.00,open2300-1.11,2011-03-28 10:33:00,
2011-03-28 04:43:00,42.4,29.5,29.75,NW,315,3.1,3.1,60,0.00,,,0.00,open2300-1.11,2011-03-28 10:43:00,
2011-03-28 04:53:00,42.4,29.1,29.75,WNW,292,0.0,3.1,59,0.00,,,0.00,open2300-1.11,2011-03-28 10:53:00,
2011-03-28 05:03:00,42.1,28.7,29.75,WNW,292,0.0,0.0,59,0.00,,,0.00,open2300-1.11,2011-03-28 11:03:00,
2011-03-28 05:13:00,41.9,28.6,29.76,NNW,337,0.0,0.0,59,0.00,,,0.00,open2300-1.11,2011-03-28 11:13:00,
2011-03-28 05:23:00,41.7,28.9,29.76,NNE,22,0.0,0.0,60,0.00,,,0.00,open2300-1.11,2011-03-28 11:23:00,
2011-03-28 05:33:00,41.5,28.7,29.76,NNE,22,0.0,0.0,60,0.00,,,0.00,open2300-1.11,2011-03-28 11:33:00,
2011-03-28 05:43:00,41.5,28.3,29.76,WNW,292,0.0,0.0,59,0.00,,,0.00,open2300-1.11,2011-03-28 11:43:00,
2011-03-28 05:53:00,40.6,27.4,29.77,WNW,292,0.0,0.0,59,0.00,,,0.00,open2300-1.11,2011-03-28 11:53:00,
2011-03-28 06:03:00,39.9,26.7,29.77,WNW,292,0.0,0.0,59,0.00,,,0.00,open2300-1.11,2011-03-28 12:03:00,
2011-03-28 06:13:00,39.0,25.8,29.78,WNW,292,0.0,0.0,59,0.00,,,0.00,open2300-1.11,2011-03-28 12:13:00,
2011-03-28 06:23:00,38.3,25.6,29.78,WNW,292,0.0,0.0,60,0.00,,,0.00,open2300-1.11,2011-03-28 12:23:00,
2011-03-28 06:33:00,37.9,25.3,29.78,SSW,202,0.0,0.0,60,0.00,,,0.00,open2300-1.11,2011-03-28 12:33:00,
2011-03-28 06:43:00,37.2,25.0,29.78,SSW,202,0.0,0.0,61,0.00,,,0.00,open2300-1.11,2011-03-28 12:43:00,
2011-03-28 06:53:00,36.5,24.4,29.78,SSW,202,0.0,0.0,61,0.00,,,0.00,open2300-1.11,2011-03-28 12:53:00,
2011-03-28 07:03:00,36.3,24.5,29.77,SW,225,0.0,1.3,62,0.00,,,0.00,open2300-1.11,2011-03-28 13:03:00,
2011-03-28 07:13:00,36.1,24.8,29.78,East,90,0.0,0.0,63,0.00,,,0.00,open2300-1.11,2011-03-28 13:13:00,
2011-03-28 07:23:00,35.8,24.8,29.79,East,90,0.0,0.0,64,0.00,,,0.00,open2300-1.11,2011-03-28 13:23:00,
2011-03-28 07:33:00,35.8,24.8,29.79,ESE,112,0.0,0.0,64,0.00,,,0.00,open2300-1.11,2011-03-28 13:33:00,
2011-03-28 07:43:00,35.8,24.8,29.79,ESE,112,0.0,0.0,64,0.00,,,0.00,open2300-1.11,2011-03-28 13:43:00,
2011-03-28 07:53:00,35.8,25.1,29.80,ESE,112,0.0,0.0,65,0.00,,,0.00,open2300-1.11,2011-03-28 13:53:00,
2011-03-28 08:03:00,36.1,25.5,29.81,ESE,112,0.0,0.0,65,0.00,,,0.00,open2300-1.11,2011-03-28 14:03:00,
2011-03-28 08:13:00,36.3,26.0,29.81,ESE,112,0.0,0.0,66,0.00,,,0.00,open2300-1.11,2011-03-28 14:13:00,
2011-03-28 08:23:00,37.0,27.1,29.81,ESE,112,0.0,0.0,67,0.00,,,0.00,open2300-1.11,2011-03-28 14:23:00,
2011-03-28 08:33:00,37.8,27.8,29.81,ESE,112,0.0,0.0,67,0.00,,,0.00,open2300-1.11,2011-03-28 14:33:00,
2011-03-28 08:43:00,39.0,29.3,29.81,WNW,292,1.6,1.6,68,0.00,,,0.00,open2300-1.11,2011-03-28 14:43:00,
2011-03-28 08:53:00,40.6,30.5,29.81,NW,315,0.0,4.2,67,0.00,,,0.00,open2300-1.11,2011-03-28 14:53:00,
2011-03-28 09:03:00,41.7,30.8,29.81,NNW,337,0.0,4.0,65,0.00,,,0.00,open2300-1.11,2011-03-28 15:03:00,
2011-03-28 09:13:00,42.4,31.1,29.82,NW,315,3.8,3.8,64,0.00,,,0.00,open2300-1.11,2011-03-28 15:13:00,
2011-03-28 09:23:00,43.3,31.5,29.83,WSW,247,5.8,6.9,63,0.00,,,0.00,open2300-1.11,2011-03-28 15:23:00,
2011-03-28 09:33:00,44.4,32.2,29.82,West,270,0.0,5.8,62,0.00,,,0.00,open2300-1.11,2011-03-28 15:33:00,
2011-03-28 09:43:00,45.5,32.8,29.82,West,270,0.0,4.5,61,0.00,,,0.00,open2300-1.11,2011-03-28 15:43:00,
2011-03-28 09:53:00,46.6,32.5,29.83,SW,225,2.2,6.0,58,0.00,,,0.00,open2300-1.11,2011-03-28 15:53:00,
2011-03-28 10:03:00,46.9,32.9,29.83,SW,225,5.1,5.1,58,0.00,,,0.00,open2300-1.11,2011-03-28 16:03:00,
2011-03-28 10:13:00,47.3,32.8,29.83,WSW,247,0.0,5.8,57,0.00,,,0.00,open2300-1.11,2011-03-28 16:13:00,
2011-03-28 10:23:00,47.5,33.4,29.83,WSW,247,0.0,5.1,58,0.00,,,0.00,open2300-1.11,2011-03-28 16:23:00,
2011-03-28 10:33:00,48.6,34.0,29.82,WSW,247,0.0,2.0,57,0.00,,,0.00,open2300-1.11,2011-03-28 16:33:00,
2011-03-28 10:43:00,49.8,34.7,29.82,WNW,292,5.6,6.5,56,0.00,,,0.00,open2300-1.11,2011-03-28 16:43:00,
2011-03-28 10:53:00,51.1,35.0,29.82,WSW,247,6.3,6.3,54,0.00,,,0.00,open2300-1.11,2011-03-28 16:53:00,
2011-03-28 11:03:00,52.2,35.5,29.82,WSW,247,6.7,6.7,53,0.00,,,0.00,open2300-1.11,2011-03-28 17:03:00,
2011-03-28 11:13:00,53.1,35.8,29.81,WNW,292,1.1,6.7,52,0.00,,,0.00,open2300-1.11,2011-03-28 17:13:00,
2011-03-28 11:23:00,54.0,36.2,29.81,West,270,5.8,6.0,51,0.00,,,0.00,open2300-1.11,2011-03-28 17:23:00,
2011-03-28 11:33:00,54.5,36.2,29.81,NW,315,2.7,6.5,50,0.00,,,0.00,open2300-1.11,2011-03-28 17:33:00,
2011-03-28 11:43:00,55.2,36.3,29.81,WNW,292,1.1,4.5,49,0.00,,,0.00,open2300-1.11,2011-03-28 17:43:00,
2011-03-28 11:53:00,55.4,35.9,29.81,WSW,247,2.5,4.2,48,0.00,,,0.00,open2300-1.11,2011-03-28 17:53:00,
2011-03-28 12:03:00,55.9,35.9,29.81,SW,225,2.0,4.5,47,0.00,,,0.00,open2300-1.11,2011-03-28 18:03:00,
2011-03-28 12:13:00,56.8,36.2,29.81,WSW,247,1.3,6.0,46,0.00,,,0.00,open2300-1.11,2011-03-28 18:13:00,
2011-03-28 12:23:00,57.4,36.1,29.80,West,270,7.2,7.2,45,0.00,,,0.00,open2300-1.11,2011-03-28 18:23:00,
2011-03-28 12:33:00,57.4,36.1,29.80,West,270,2.5,7.2,45,0.00,,,0.00,open2300-1.11,2011-03-28 18:33:00,
2011-03-28 12:43:00,58.5,36.5,29.79,WSW,247,4.7,9.4,44,0.00,,,0.00,open2300-1.11,2011-03-28 18:43:00,
2011-03-28 12:53:00,59.2,37.2,29.78,NNW,337,1.8,9.4,44,0.00,,,0.00,open2300-1.11,2011-03-28 18:53:00,
2011-03-28 13:03:00,59.5,36.3,29.78,NW,315,0.0,5.6,42,0.00,,,0.00,open2300-1.11,2011-03-28 19:03:00,
2011-03-28 13:13:00,60.1,35.0,29.79,WSW,247,4.9,6.3,39,0.00,,,0.00,open2300-1.11,2011-03-28 19:13:00,
2011-03-28 13:23:00,60.6,36.2,29.78,WSW,247,9.2,9.2,40,0.00,,,0.00,open2300-1.11,2011-03-28 19:23:00,
2011-03-28 13:33:00,61.2,35.9,29.78,SW,225,3.6,9.2,39,0.00,,,0.00,open2300-1.11,2011-03-28 19:33:00,
2011-03-28 13:43:00,60.8,35.6,29.77,NW,315,4.5,5.1,39,0.00,,,0.00,open2300-1.11,2011-03-28 19:43:00,
2011-03-28 13:53:00,61.0,34.3,29.78,West,270,3.6,10.7,37,0.00,,,0.00,open2300-1.11,2011-03-28 19:53:00,
2011-03-28 14:03:00,61.3,34.7,29.77,West,270,3.1,5.6,37,0.00,,,0.00,open2300-1.11,2011-03-28 20:03:00,
2011-03-28 14:13:00,61.3,34.7,29.77,SSW,202,3.4,4.9,37,0.00,,,0.00,open2300-1.11,2011-03-28 20:13:00,
2011-03-28 14:23:00,61.9,34.4,29.77,West,270,0.0,7.4,36,0.00,,,0.00,open2300-1.11,2011-03-28 20:23:00,
2011-03-28 14:33:00,61.2,33.0,29.76,SW,225,4.5,10.3,35,0.00,,,0.00,open2300-1.11,2011-03-28 20:33:00,
2011-03-28 14:43:00,61.5,34.1,29.76,WNW,292,3.8,9.4,36,0.00,,,0.00,open2300-1.11,2011-03-28 20:43:00,
2011-03-28 14:53:00,61.0,32.9,29.76,SW,225,5.1,5.4,35,0.00,,,0.00,open2300-1.11,2011-03-28 20:53:00,
2011-03-28 15:03:00,61.3,32.5,29.75,WNW,292,4.5,5.1,34,0.00,,,0.00,open2300-1.11,2011-03-28 21:03:00,
2011-03-28 15:13:00,61.7,32.1,29.75,West,270,4.2,6.3,33,0.00,,,0.00,open2300-1.11,2011-03-28 21:13:00,
2011-03-28 15:23:00,61.3,31.8,29.74,South,180,2.0,4.5,33,0.00,,,0.00,open2300-1.11,2011-03-28 21:23:00,
2011-03-28 15:33:00,62.8,33.1,29.74,WNW,292,0.0,5.1,33,0.00,,,0.00,open2300-1.11,2011-03-28 21:33:00,
2011-03-28 15:43:00,63.3,30.4,29.74,SW,225,1.1,7.2,29,0.00,,,0.00,open2300-1.11,2011-03-28 21:43:00,
2011-03-28 15:53:00,63.5,30.6,29.74,SW,225,4.7,6.9,29,0.00,,,0.00,open2300-1.11,2011-03-28 21:53:00,
2011-03-28 16:03:00,64.0,31.0,29.73,WNW,292,4.2,4.9,29,0.00,,,0.00,open2300-1.11,2011-03-28 22:03:00,
2011-03-28 16:13:00,64.6,31.5,29.73,West,270,1.8,9.4,29,0.00,,,0.00,open2300-1.11,2011-03-28 22:13:00,
2011-03-28 16:23:00,64.9,30.9,29.73,NW,315,0.9,4.2,28,0.00,,,0.00,open2300-1.11,2011-03-28 22:23:00,
2011-03-28 16:33:00,65.3,31.2,29.73,SW,225,1.6,4.2,28,0.00,,,0.00,open2300-1.11,2011-03-28 22:33:00,
2011-03-28 16:43:00,65.5,30.3,29.73,SW,225,1.3,9.2,27,0.00,,,0.00,open2300-1.11,2011-03-28 22:43:00,
2011-03-28 16:53:00,65.7,30.5,29.73,West,270,0.0,2.7,27,0.00,,,0.00,open2300-1.11,2011-03-28 22:53:00,
2011-03-28 17:03:00,66.4,30.1,29.73,WNW,292,8.5,8.5,26,0.00,,,0.00,open2300-1.11,2011-03-28 23:03:00,
2011-03-28 17:14:00,66.0,29.8,29.73,NW,315,7.6,8.5,26,0.00,,,0.00,open2300-1.11,2011-03-28 23:14:00,
2011-03-28 17:23:00,67.3,28.9,29.74,West,270,2.0,7.6,24,0.00,,,0.00,open2300-1.11,2011-03-28 23:23:00,
2011-03-28 17:33:00,68.2,29.6,29.74,NNW,337,3.6,5.8,24,0.00,,,0.00,open2300-1.11,2011-03-28 23:33:00,
2011-03-28 17:43:00,70.3,30.4,29.74,WSW,247,0.0,5.6,23,0.00,,,0.00,open2300-1.11,2011-03-28 23:43:00,
2011-03-28 17:53:00,71.4,26.6,29.74,East,90,0.0,5.8,19,0.00,,,0.00,open2300-1.11,2011-03-28 23:53:00,
2011-03-28 18:03:00,66.4,26.1,29.74,WNW,292,6.3,6.3,22,0.00,,,0.00,open2300-1.11,2011-03-29 00:03:00,
2011-03-28 18:13:00,63.5,25.7,29.75,West,270,7.2,7.2,24,0.00,,,0.00,open2300-1.11,2011-03-29 00:13:00,
2011-03-28 18:23:00,61.5,25.0,29.75,NW,315,4.5,7.2,25,0.00,,,0.00,open2300-1.11,2011-03-29 00:23:00,
2011-03-28 18:33:00,60.4,26.0,29.74,West,270,3.1,5.4,27,0.00,,,0.00,open2300-1.11,2011-03-29 00:33:00,
2011-03-28 18:43:00,59.7,26.3,29.74,NW,315,0.0,4.0,28,0.00,,,0.00,open2300-1.11,2011-03-29 00:43:00,
2011-03-28 18:53:00,58.8,26.5,29.74,NNW,337,4.7,4.7,29,0.00,,,0.00,open2300-1.11,2011-03-29 00:53:00,
2011-03-28 19:03:00,58.1,26.9,29.74,NNW,337,3.4,4.7,30,0.00,,,0.00,open2300-1.11,2011-03-29 01:03:00,
2011-03-28 19:13:00,57.6,26.4,29.75,SW,225,2.7,4.2,30,0.00,,,0.00,open2300-1.11,2011-03-29 01:13:00,
2011-03-28 19:23:00,57.0,26.6,29.75,West,270,0.0,4.2,31,0.00,,,0.00,open2300-1.11,2011-03-29 01:23:00,
2011-03-28 19:33:00,56.3,26.6,29.75,WSW,247,3.1,3.1,32,0.00,,,0.00,open2300-1.11,2011-03-29 01:33:00,
2011-03-28 19:43:00,55.8,26.9,29.75,WNW,292,0.0,3.1,33,0.00,,,0.00,open2300-1.11,2011-03-29 01:43:00,
2011-03-28 19:53:00,55.2,27.1,29.76,NW,315,0.0,0.0,34,0.00,,,0.00,open2300-1.11,2011-03-29 01:53:00,
2011-03-28 20:03:00,54.3,26.3,29.76,WNW,292,0.0,1.6,34,0.00,,,0.00,open2300-1.11,2011-03-29 02:03:00,
2011-03-28 20:13:00,54.0,26.0,29.76,WNW,292,0.0,0.2,34,0.00,,,0.00,open2300-1.11,2011-03-29 02:13:00,
2011-03-28 20:23:00,53.2,26.1,29.76,WNW,292,0.0,0.0,35,0.00,,,0.00,open2300-1.11,2011-03-29 02:23:00,
2011-03-28 20:33:00,52.3,26.0,29.77,WNW,292,0.0,0.0,36,0.00,,,0.00,open2300-1.11,2011-03-29 02:33:00,
2011-03-28 20:43:00,52.2,27.2,29.77,WNW,292,0.0,0.0,38,0.00,,,0.00,open2300-1.11,2011-03-29 02:43:00,
2011-03-28 20:53:00,51.6,26.0,29.77,NW,315,0.0,0.0,37,0.00,,,0.00,open2300-1.11,2011-03-29 02:53:00,
2011-03-28 21:03:00,50.9,26.0,29.78,NW,315,0.0,0.0,38,0.00,,,0.00,open2300-1.11,2011-03-29 03:03:00,
2011-03-28 21:13:00,50.9,28.0,29.79,North,0,1.1,4.5,41,0.00,,,0.00,open2300-1.11,2011-03-29 03:13:00,
2011-03-28 21:23:00,51.3,28.3,29.79,NNW,337,2.0,3.4,41,0.00,,,0.00,open2300-1.11,2011-03-29 03:23:00,
2011-03-28 21:33:00,51.3,28.9,29.79,NNE,22,1.3,2.5,42,0.00,,,0.00,open2300-1.11,2011-03-29 03:33:00,
2011-03-28 21:43:00,51.1,28.7,29.80,North,0,0.0,2.9,42,0.00,,,0.00,open2300-1.11,2011-03-29 03:43:00,
2011-03-28 21:53:00,50.7,28.4,29.80,NE,45,2.0,2.7,42,0.00,,,0.00,open2300-1.11,2011-03-29 03:53:00,
2011-03-28 22:03:00,50.4,28.0,29.81,NE,45,3.1,5.4,42,0.00,,,0.00,open2300-1.11,2011-03-29 04:03:00,
2011-03-28 22:13:00,50.0,27.2,29.82,NNW,337,2.5,8.5,41,0.00,,,0.00,open2300-1.11,2011-03-29 04:13:00,
2011-03-28 22:23:00,49.6,26.3,29.82,NNW,337,0.0,6.7,40,0.00,,,0.00,open2300-1.11,2011-03-29 04:23:00,
2011-03-28 22:33:00,49.3,26.0,29.81,NW,315,1.1,4.9,40,0.00,,,0.00,open2300-1.11,2011-03-29 04:33:00,
2011-03-28 22:43:00,49.1,25.8,29.82,West,270,0.0,2.5,40,0.00,,,0.00,open2300-1.11,2011-03-29 04:43:00,
2011-03-28 22:53:00,48.7,25.5,29.83,NW,315,4.0,4.0,40,0.00,,,0.00,open2300-1.11,2011-03-29 04:53:00,
2011-03-28 23:03:00,48.6,25.3,29.84,West,270,1.8,4.0,40,0.00,,,0.00,open2300-1.11,2011-03-29 05:03:00,
2011-03-28 23:13:00,48.4,25.1,29.84,North,0,4.9,4.9,40,0.00,,,0.00,open2300-1.11,2011-03-29 05:13:00,
2011-03-28 23:23:00,48.0,24.8,29.85,NW,315,0.0,6.7,40,0.00,,,0.00,open2300-1.11,2011-03-29 05:23:00,
2011-03-28 23:33:00,47.5,23.7,29.85,NNW,337,0.0,3.4,39,0.00,,,0.00,open2300-1.11,2011-03-29 05:33:00,
2011-03-28 23:43:00,47.3,23.5,29.85,SSE,157,3.6,4.9,39,0.00,,,0.00,open2300-1.11,2011-03-29 05:43:00,
2011-03-28 23:53:00,47.1,23.3,29.86,West,270,0.0,6.7,39,0.00,,,0.00,open2300-1.11,2011-03-29 05:53:00,